createdAt,value
2022-08-26T00:03:02.161Z,99436.63
2022-08-26T00:13:09.314Z,99402.25
2022-08-26T00:23:15.972Z,99368.53
2022-08-26T00:33:23.641Z,99375.94
2022-08-26T00:43:33.609Z,99383.19
2022-08-26T00:54:02.366Z,99385.06
2022-08-26T01:04:11.212Z,99396.81
2022-08-26T01:14:18.384Z,99385.28
2022-08-26T01:24:28.782Z,99390.34
2022-08-26T01:34:39.969Z,99390.81
2022-08-26T01:44:54.033Z,99386.94
2022-08-26T01:55:00.790Z,99387.88
2022-08-26T02:05:08.112Z,99392.16
2022-08-26T02:15:14.466Z,99396.59
2022-08-26T02:25:34.145Z,99392.59
2022-08-26T02:35:41.142Z,99389.47
2022-08-26T02:45:48.341Z,99382.34
2022-08-26T02:55:56.225Z,99386.47
2022-08-26T03:06:02.551Z,99382.50
2022-08-26T03:16:09.505Z,99379.12
2022-08-26T03:26:16.589Z,99374.63
2022-08-26T03:36:23.450Z,99373.88
2022-08-26T03:46:32.781Z,99368.94
2022-08-26T03:56:40.096Z,99366.63
2022-08-26T04:06:46.532Z,99362.41
2022-08-26T04:16:55.380Z,99361.78
2022-08-26T04:27:04.586Z,99355.28
2022-08-26T04:37:14.494Z,99353.47
2022-08-26T04:47:20.808Z,99345.72
2022-08-26T04:57:27.356Z,99316.88
2022-08-26T05:07:36.101Z,99289.72
2022-08-26T05:17:42.529Z,99288.75
2022-08-26T05:27:48.858Z,99350.44
2022-08-26T05:37:55.174Z,99328.41
2022-08-26T05:48:01.487Z,99337.06
2022-08-26T05:58:07.883Z,99328.38
2022-08-26T06:08:17.455Z,99345.66
2022-08-26T06:18:31.844Z,99314.19
2022-08-26T06:28:38.240Z,99294.03
2022-08-26T06:38:45.706Z,99282.91
2022-08-26T06:48:52.022Z,99286.13
2022-08-26T06:58:58.462Z,99293.25
2022-08-26T07:09:07.326Z,99282.53
2022-08-26T07:19:17.508Z,99293.72
2022-08-26T07:29:35.633Z,99226.03
2022-08-26T07:39:43.157Z,99136.06
2022-08-26T07:49:52.819Z,99112.56
2022-08-26T08:00:00.916Z,99061.84
2022-08-26T08:10:11.339Z,99016.59
2022-08-26T08:20:18.254Z,98982.56
2022-08-26T08:30:25.668Z,98983.03
2022-08-26T08:40:32.473Z,98988.72
2022-08-26T08:50:45.480Z,98924.03
2022-08-26T09:00:51.964Z,98904.56
2022-08-26T09:11:01.564Z,98882.91
2022-08-26T09:21:10.950Z,98761.25
2022-08-26T09:31:28.644Z,98742.81
2022-08-26T09:41:36.568Z,98730.44
2022-08-26T09:51:42.864Z,98716.31
2022-08-26T10:01:49.421Z,98701.28
2022-08-26T10:12:02.289Z,98699.38
2022-08-26T10:22:30.194Z,98646.84
2022-08-26T10:32:49.516Z,98578.31
2022-08-26T10:43:11.237Z,98542.09
2022-08-26T10:53:25.340Z,98505.44
2022-08-26T11:03:40.380Z,98498.25
2022-08-26T11:14:02.140Z,98498.41
2022-08-26T11:24:08.497Z,98449.88
2022-08-26T11:34:15.968Z,98422.16
2022-08-26T11:44:28.947Z,98397.03
2022-08-26T11:54:35.931Z,98341.69
2022-08-26T12:04:43.666Z,98315.63
2022-08-26T12:14:50.037Z,98310.69
2022-08-26T12:25:01.978Z,98256.59
2022-08-26T12:35:15.748Z,98231.22
2022-08-26T12:45:35.193Z,98161.06
2022-08-26T12:55:48.639Z,98115.38
2022-08-26T13:05:55.065Z,98043.72
2022-08-26T13:16:01.454Z,97981.41
2022-08-26T13:26:07.759Z,97922.59
2022-08-26T13:36:14.375Z,97894.22
2022-08-26T13:46:21.901Z,97889.87
2022-08-26T13:56:30.700Z,97895.41
2022-08-26T14:06:36.997Z,97899.94
2022-08-26T14:16:59.134Z,97890.72
2022-08-26T14:27:06.531Z,97885.78
2022-08-26T14:37:15.371Z,97884.06
2022-08-26T14:47:21.936Z,97879.63
2022-08-26T14:57:28.265Z,97880.22
2022-08-26T15:07:34.608Z,97880.69
2022-08-26T15:17:41.620Z,97881.16
2022-08-26T15:27:48.402Z,97891.06
2022-08-26T15:37:54.701Z,97879.00
2022-08-26T15:48:03.320Z,97888.16
2022-08-26T15:58:10.908Z,97877.34
2022-08-26T16:08:17.275Z,97885.31
2022-08-26T16:18:23.897Z,97878.12
2022-08-26T16:28:30.551Z,97857.31
2022-08-26T16:38:37.281Z,97858.00
2022-08-26T16:48:46.902Z,97850.28
2022-08-26T16:58:55.289Z,97850.09
2022-08-26T17:09:01.568Z,97844.47
2022-08-26T17:19:08.073Z,97848.03
2022-08-26T17:29:14.411Z,97870.53
2022-08-26T17:39:20.864Z,98453.34
2022-08-26T17:49:27.218Z,98523.66
2022-08-26T17:59:33.583Z,98565.25
2022-08-26T18:09:39.986Z,98575.16
2022-08-26T18:19:47.320Z,98615.84
2022-08-26T18:29:53.682Z,98722.75
2022-08-26T18:40:00.732Z,98693.91
2022-08-26T18:50:08.305Z,98683.75
2022-08-26T19:00:15.311Z,98668.31
2022-08-26T19:10:21.893Z,98679.56
2022-08-26T19:20:28.885Z,98676.38
2022-08-26T19:30:39.441Z,98695.28
2022-08-26T19:40:45.819Z,98717.00
2022-08-26T19:50:52.110Z,98744.25
2022-08-26T20:00:58.484Z,98758.00
2022-08-26T20:11:13.433Z,98776.22
2022-08-26T20:21:27.560Z,98780.09
2022-08-26T20:31:33.953Z,98782.19
2022-08-26T20:41:40.570Z,98781.50
2022-08-26T20:51:46.926Z,98802.59
2022-08-26T21:01:54.588Z,98783.38
2022-08-26T21:12:00.873Z,98785.12
2022-08-26T21:22:07.758Z,98780.53
2022-08-26T21:32:15.747Z,98794.41
2022-08-26T21:42:22.462Z,98798.50
2022-08-26T21:52:28.811Z,98796.13
2022-08-26T22:02:35.862Z,98791.25
2022-08-26T22:12:42.262Z,98795.72
2022-08-26T22:22:48.615Z,98778.84
2022-08-26T22:32:54.982Z,98763.66
2022-08-26T22:43:02.676Z,98762.53
2022-08-26T22:53:09.061Z,98757.44
2022-08-26T23:03:16.974Z,98735.56
2022-08-26T23:13:23.402Z,98708.31
2022-08-26T23:23:29.766Z,98691.75
2022-08-26T23:33:54.721Z,98684.91
2022-08-26T23:44:03.604Z,98693.13
2022-08-26T23:54:10.409Z,98709.56
